createdAt,value
2019-03-28T00:07:54.781Z,61
2019-03-28T00:17:58.125Z,60
2019-03-28T00:28:01.439Z,60
2019-03-28T00:38:04.773Z,59
2019-03-28T00:48:08.083Z,60
2019-03-28T00:58:11.408Z,59
2019-03-28T01:08:14.753Z,58
2019-03-28T01:18:18.078Z,58
2019-03-28T01:28:21.419Z,58
2019-03-28T01:38:24.761Z,57
2019-03-28T01:48:28.087Z,57
2019-03-28T01:58:31.428Z,57
2019-03-28T02:08:34.755Z,57
2019-03-28T02:18:38.080Z,57
2019-03-28T02:28:41.587Z,56
2019-03-28T02:38:44.938Z,56
2019-03-28T02:48:48.289Z,56
2019-03-28T02:58:51.651Z,56
2019-03-28T03:08:54.999Z,55
2019-03-28T03:18:58.407Z,55
2019-03-28T03:29:03.352Z,55
2019-03-28T03:39:06.689Z,55
2019-03-28T03:49:10.074Z,54
2019-03-28T03:59:13.460Z,54
2019-03-28T04:09:16.810Z,54
2019-03-28T04:19:20.149Z,54
2019-03-28T04:29:23.511Z,54
2019-03-28T04:39:26.861Z,53
2019-03-28T04:49:30.191Z,53
2019-03-28T04:59:33.537Z,54
2019-03-28T05:09:36.976Z,53
2019-03-28T05:19:40.323Z,53
2019-03-28T05:29:43.663Z,54
2019-03-28T05:39:47.001Z,53
2019-03-28T05:49:50.330Z,53
2019-03-28T05:59:53.676Z,53
2019-03-28T06:09:57.009Z,54
2019-03-28T06:20:00.574Z,54
2019-03-28T06:30:03.903Z,51
2019-03-28T06:40:07.239Z,59
2019-03-28T06:50:10.595Z,58
2019-03-28T07:00:13.936Z,56
2019-03-28T07:10:17.258Z,56
2019-03-28T07:20:20.564Z,56
2019-03-28T07:30:23.920Z,56
2019-03-28T07:40:27.239Z,56
2019-03-28T07:50:33.747Z,56
2019-03-28T08:00:37.084Z,56
2019-03-28T08:10:40.418Z,58
2019-03-28T08:20:43.739Z,60
2019-03-28T08:30:47.052Z,61
2019-03-28T08:40:50.414Z,61
2019-03-28T08:50:55.019Z,59
2019-03-28T09:00:58.339Z,59
2019-03-28T09:11:01.675Z,58
2019-03-28T09:21:04.998Z,58
2019-03-28T09:31:20.674Z,60
2019-03-28T09:41:24.018Z,62
2019-03-28T09:51:27.451Z,63
2019-03-28T10:01:30.778Z,63
2019-03-28T10:11:34.118Z,63
2019-03-28T10:21:38.950Z,64
2019-03-28T10:31:42.350Z,64
2019-03-28T10:41:45.686Z,64
2019-03-28T10:51:49.029Z,64
2019-03-28T11:01:52.361Z,72
2019-03-28T11:11:56.723Z,74
2019-03-28T11:22:00.197Z,73
2019-03-28T11:32:03.578Z,42
2019-03-28T11:42:06.981Z,39
2019-03-28T13:06:15.339Z,61
2019-03-28T13:16:18.677Z,61
2019-03-28T13:26:22.199Z,59
2019-03-28T13:36:25.711Z,61
2019-03-28T13:46:29.212Z,63
2019-03-28T13:56:32.724Z,60
2019-03-28T14:06:36.213Z,54
2019-03-28T14:16:39.706Z,58
2019-03-28T14:26:43.223Z,62
2019-03-28T14:36:46.729Z,65
2019-03-28T14:46:50.265Z,65
2019-03-28T14:56:53.791Z,65
2019-03-28T15:06:57.278Z,56
2019-03-28T15:17:00.791Z,50
2019-03-28T15:27:05.320Z,45
2019-03-28T15:37:09.208Z,48
2019-03-28T15:47:12.710Z,50
2019-03-28T15:57:16.217Z,52
2019-03-28T16:07:19.691Z,54
2019-03-28T16:17:24.191Z,57
2019-03-28T16:27:27.695Z,57
2019-03-28T16:37:31.256Z,50
2019-03-28T16:47:34.806Z,42
2019-03-28T16:57:38.319Z,41
2019-03-28T17:07:41.802Z,41
2019-03-28T17:17:45.300Z,38
2019-03-28T17:27:48.822Z,36
2019-03-28T17:37:52.332Z,34
2019-03-28T17:47:55.912Z,35
2019-03-28T17:57:59.436Z,34
2019-03-28T18:08:02.920Z,33
2019-03-28T18:18:06.403Z,44
2019-03-28T18:28:10.188Z,38
2019-03-28T18:38:13.694Z,35
2019-03-28T18:48:36.844Z,35
2019-03-28T18:58:41.843Z,33
2019-03-28T19:08:45.361Z,35
2019-03-28T19:18:48.843Z,66
2019-03-28T19:28:52.358Z,67
2019-03-28T19:38:55.854Z,66
2019-03-28T19:48:59.363Z,66
2019-03-28T19:59:02.886Z,66
2019-03-28T20:09:18.409Z,65
2019-03-28T20:19:22.010Z,65
2019-03-28T20:29:25.536Z,64
2019-03-28T20:39:29.055Z,64
2019-03-28T20:49:32.577Z,63
2019-03-28T20:59:36.104Z,63
2019-03-28T21:09:39.598Z,63
2019-03-28T21:19:43.099Z,62
2019-03-28T21:29:51.340Z,62
2019-03-28T21:39:54.875Z,61
2019-03-28T21:49:58.376Z,61
2019-03-28T22:00:01.885Z,61
2019-03-28T22:10:09.307Z,60
2019-03-28T22:20:12.818Z,60
2019-03-28T22:30:16.339Z,59
2019-03-28T22:40:19.840Z,60
2019-03-28T22:50:24.413Z,59
2019-03-28T23:00:27.916Z,58
2019-03-28T23:10:31.422Z,59
2019-03-28T23:20:34.929Z,59
2019-03-28T23:30:38.454Z,58
2019-03-28T23:40:41.981Z,59
2019-03-28T23:50:45.489Z,58
